Time;durP1;ratioP1;P1;durP2;ratioP2;P2;SDS_P1;SDS_P2;PMS_P1;PMS_P2;Temp;Humidity;BMP_temperature;BMP_pressure;BME280_temperature;BME280_humidity;BME280_pressure;Samples;Min_cycle;Max_cycle;Signal;HPM_P1;HPM_P2
2022/01/03 00:00:11;;;;;;;22.42;2.80;;;;;;;11.81;69.83;101145.09;4985136;28;20168;-59
2022/01/03 00:02:37;;;;;;;20.83;2.90;;;;;;;11.72;70.03;101136.25;4979561;28;20044;-59
2022/01/03 00:05:03;;;;;;;19.45;3.08;;;;;;;11.69;70.28;101136.22;4982596;28;20064;-59
2022/01/03 00:07:28;;;;;;;21.35;2.80;;;;;;;11.75;69.75;101144.19;4977905;28;20050;-60
2022/01/03 00:09:55;;;;;;;22.85;2.97;;;;;;;11.79;69.85;101155.53;4980543;28;20366;-60
2022/01/03 00:12:20;;;;;;;24.95;3.25;;;;;;;11.82;69.55;101149.47;4985028;28;20134;-59
2022/01/03 00:14:48;;;;;;;22.60;2.97;;;;;;;11.88;68.96;101142.59;4982454;28;20049;-60
2022/01/03 00:17:13;;;;;;;26.77;3.35;;;;;;;11.76;69.64;101152.91;4983232;28;20049;-60
2022/01/03 00:19:39;;;;;;;28.63;3.38;;;;;;;11.77;69.41;101138.97;4972525;28;20762;-60
2022/01/03 00:22:06;;;;;;;24.55;3.20;;;;;;;11.82;69.09;101146.88;4980174;28;20050;-60
2022/01/03 00:24:33;;;;;;;25.58;3.10;;;;;;;11.85;68.82;101158.22;4977579;28;20389;-59
2022/01/03 00:27:12;;;;;;;25.52;3.08;;;;;;;11.69;69.64;101153.63;4982297;28;20136;-59
2022/01/03 00:29:45;;;;;;;20.52;3.05;;;;;;;11.74;69.34;101152.88;4971020;28;20145;-59
2022/01/03 00:32:11;;;;;;;26.48;3.78;;;;;;;11.70;69.64;101164.09;4976826;28;20333;-59
2022/01/03 00:34:38;;;;;;;18.42;2.50;;;;;;;11.73;69.21;101163.25;4982695;28;20161;-59
2022/01/03 00:37:08;;;;;;;19.90;3.40;;;;;;;11.69;69.54;101157.13;4991622;28;20085;-60
2022/01/03 00:39:34;;;;;;;25.38;3.38;;;;;;;11.69;69.69;101166.69;4974770;28;20050;-60
2022/01/03 00:42:00;;;;;;;23.30;3.00;;;;;;;11.62;69.32;101172.69;4980253;28;20038;-60
2022/01/03 00:44:26;;;;;;;22.02;3.20;;;;;;;11.68;69.39;101163.19;4974650;28;20158;-59
2022/01/03 00:46:53;;;;;;;26.13;3.47;;;;;;;11.70;68.96;101169.31;4981587;28;20099;-60
2022/01/03 00:49:19;;;;;;;25.83;3.63;;;;;;;11.69;68.75;101171.91;4983101;28;20069;-58
2022/01/03 00:51:45;;;;;;;29.23;3.67;;;;;;;11.62;68.88;101177.91;4968530;28;20057;-59
2022/01/03 00:54:10;;;;;;;21.90;2.95;;;;;;;11.64;68.69;101174.47;4981004;28;20030;-59
2022/01/03 00:56:38;;;;;;;22.02;3.10;;;;;;;11.66;68.62;101172.75;4977466;28;20524;-59
2022/01/03 00:59:10;;;;;;;23.25;2.83;;;;;;;11.60;68.41;101166.53;4979356;28;20041;-59
2022/01/03 01:01:39;;;;;;;20.40;3.15;;;;;;;11.61;68.28;101160.47;4975977;28;20066;-59
2022/01/03 01:04:08;;;;;;;23.70;3.00;;;;;;;11.60;68.48;101169.16;4982123;28;20403;-59
2022/01/03 01:06:35;;;;;;;19.85;3.03;;;;;;;11.56;68.29;101175.22;4986142;28;20690;-59
2022/01/03 01:09:04;;;;;;;29.65;3.10;;;;;;;11.57;68.58;101175.22;4981455;28;20556;-59
2022/01/03 01:11:30;;;;;;;26.13;3.15;;;;;;;11.58;68.68;101174.38;4978261;28;20088;-60
2022/01/03 01:13:56;;;;;;;21.33;3.45;;;;;;;11.53;68.73;101173.41;4977394;28;20081;-61
2022/01/03 01:16:22;;;;;;;27.42;3.10;;;;;;;11.51;69.27;101169.94;4981361;28;20168;-59
2022/01/03 01:18:48;;;;;;;25.67;3.00;;;;;;;11.51;69.51;101172.53;4980418;28;20104;-60
2022/01/03 01:21:13;;;;;;;23.65;3.33;;;;;;;11.48;69.08;101171.59;4973299;28;20034;-59
2022/01/03 01:23:41;;;;;;;24.83;3.30;;;;;;;11.55;69.54;101176.94;4971743;28;20073;-59
2022/01/03 01:28:52;;;;;;;23.52;3.22;;;;;;;11.55;68.88;101170.84;4983286;28;20045;-60
2022/01/03 01:31:23;;;;;;;29.27;3.35;;;;;;;11.57;68.90;101179.56;4977224;28;20038;-61
2022/01/03 01:33:53;;;;;;;20.48;3.08;;;;;;;11.49;69.04;101173.34;4978487;28;20068;-59
2022/01/03 01:36:23;;;;;;;26.55;3.05;;;;;;;11.55;68.99;101176.06;4976253;28;20135;-61
2022/01/03 01:38:50;;;;;;;25.02;2.97;;;;;;;11.57;68.68;101179.56;4980123;28;20129;-60
2022/01/03 01:41:17;;;;;;;17.55;2.90;;;;;;;11.61;68.88;101183.97;4977727;28;20034;-59
2022/01/03 01:43:45;;;;;;;22.35;3.38;;;;;;;11.60;68.91;101179.59;4971810;28;20534;-61
2022/01/03 01:46:17;;;;;;;25.48;3.08;;;;;;;11.63;68.74;101180.53;4981545;28;20383;-59
2022/01/03 01:48:46;;;;;;;22.88;3.15;;;;;;;11.66;68.54;101170.13;4982593;28;20519;-60
2022/01/03 01:51:13;;;;;;;22.80;2.90;;;;;;;11.67;68.50;101177.09;4977312;28;20052;-59
2022/01/03 01:53:45;;;;;;;27.10;3.40;;;;;;;11.75;68.01;101174.63;4969658;28;20049;-60
2022/01/03 01:56:20;;;;;;;26.48;2.85;;;;;;;11.70;68.32;101177.16;4972728;28;20375;-58
2022/01/03 01:58:54;;;;;;;20.60;2.80;;;;;;;11.64;68.44;101181.44;4971761;28;20049;-59
2022/01/03 02:01:20;;;;;;;23.98;2.95;;;;;;;11.71;68.07;101183.28;4980806;28;20697;-60
2022/01/03 02:03:57;;;;;;;24.65;3.17;;;;;;;11.62;68.49;101194.44;4973671;28;20030;-60
2022/01/03 02:06:32;;;;;;;23.63;3.05;;;;;;;11.55;68.79;101191.72;4976849;28;20038;-60
2022/01/03 02:09:03;;;;;;;29.08;3.25;;;;;;;11.51;69.33;101175.16;4977355;28;20137;-60
2022/01/03 02:11:50;;;;;;;33.75;4.07;;;;;;;11.51;69.23;101187.31;4970875;28;20042;-61
2022/01/03 02:14:17;;;;;;;29.48;3.70;;;;;;;11.53;69.46;101181.25;4980579;28;20457;-60
2022/01/03 02:16:43;;;;;;;35.00;3.88;;;;;;;11.51;69.99;101169.94;4978195;28;20144;-59
2022/01/03 02:19:09;;;;;;;21.63;2.97;;;;;;;11.52;70.08;101183.88;4977931;28;20392;-59
2022/01/03 02:21:34;;;;;;;33.20;3.92;;;;;;;11.56;69.90;101190.88;4969301;28;20030;-59
2022/01/03 02:24:00;;;;;;;25.52;3.53;;;;;;;11.49;70.19;101178.56;4976533;28;20473;-61
2022/01/03 02:26:28;;;;;;;30.67;3.30;;;;;;;11.48;69.93;101188.16;4981393;28;20073;-59
2022/01/03 02:28:53;;;;;;;27.90;3.72;;;;;;;11.44;70.30;101190.69;4991579;28;20420;-60
2022/01/03 02:31:18;;;;;;;29.38;3.53;;;;;;;11.47;70.35;101182.88;4977290;28;20037;-61
2022/01/03 02:33:44;;;;;;;35.90;3.92;;;;;;;11.45;70.25;101176.78;4987456;28;20523;-59
2022/01/03 02:36:10;;;;;;;27.35;4.10;;;;;;;11.48;69.82;101188.16;4982024;28;20662;-59
2022/01/03 02:38:35;;;;;;;25.83;3.42;;;;;;;11.45;70.02;101188.13;4977967;28;20197;-60
2022/01/03 02:41:03;;;;;;;31.30;3.42;;;;;;;11.39;70.53;101185.41;4976527;28;20038;-59
2022/01/03 02:43:32;;;;;;;31.95;3.95;;;;;;;11.42;70.24;101195.88;4979316;28;20076;-58
2022/01/03 02:45:57;;;;;;;31.70;3.60;;;;;;;11.40;70.10;101201.06;4980525;28;20070;-59
2022/01/03 02:48:23;;;;;;;30.75;3.35;;;;;;;11.45;70.41;101192.44;4971647;28;20140;-60
2022/01/03 02:50:48;;;;;;;26.13;3.30;;;;;;;11.50;69.79;101181.22;4979933;28;20038;-59
2022/01/03 02:53:14;;;;;;;32.88;4.22;;;;;;;11.49;70.02;101184.69;4976745;28;20046;-59
2022/01/03 02:55:40;;;;;;;34.38;4.05;;;;;;;11.46;69.88;101187.25;4970976;28;20054;-59
2022/01/03 02:58:07;;;;;;;33.78;3.88;;;;;;;11.38;70.26;101187.16;4978936;28;20165;-60
2022/01/03 03:00:44;;;;;;;29.73;3.80;;;;;;;11.45;70.04;101197.69;4978827;28;20434;-60
2022/01/03 03:03:11;;;;;;;31.23;3.97;;;;;;;11.44;70.17;101196.78;4987998;28;20100;-59
2022/01/03 03:05:39;;;;;;;34.65;4.05;;;;;;;11.43;69.88;101196.75;4973079;28;20477;-59
2022/01/03 03:08:04;;;;;;;33.38;4.30;;;;;;;11.45;69.64;101193.34;4978425;28;20111;-60
2022/01/03 03:10:30;;;;;;;27.02;3.85;;;;;;;11.37;70.38;101179.28;4982915;28;20144;-60
2022/01/03 03:12:55;;;;;;;30.13;3.97;;;;;;;11.28;70.31;101187.84;4981485;28;20436;-60
2022/01/03 03:15:21;;;;;;;38.10;4.18;;;;;;;11.34;70.70;101184.47;4982777;28;20495;-59
2022/01/03 03:17:47;;;;;;;30.80;3.72;;;;;;;11.37;70.50;101181.88;4975237;28;20111;-60
2022/01/03 03:20:20;;;;;;;36.58;4.60;;;;;;;11.37;70.24;101185.38;4982987;28;20037;-59
2022/01/03 03:22:50;;;;;;;31.00;4.20;;;;;;;11.32;70.47;101187.06;4977220;28;20137;-59
2022/01/03 03:25:27;;;;;;;30.63;3.80;;;;;;;11.34;70.61;101174.88;4981971;28;20050;-60
2022/01/03 03:27:55;;;;;;;36.80;4.38;;;;;;;11.14;71.22;101173.72;4980170;28;20618;-60
2022/01/03 03:30:23;;;;;;;28.77;3.55;;;;;;;11.29;71.20;101173.06;4981029;28;20042;-59
2022/01/03 03:32:52;;;;;;;37.85;4.47;;;;;;;11.27;70.95;101169.56;4980977;28;20076;-59
2022/01/03 03:35:18;;;;;;;33.47;4.40;;;;;;;11.34;71.07;101164.44;4981912;28;20043;-61
2022/01/03 03:37:44;;;;;;;36.03;4.03;;;;;;;11.38;70.66;101155.81;4991668;28;20053;-60
2022/01/03 03:40:09;;;;;;;33.60;4.13;;;;;;;11.34;71.35;101164.44;4978645;28;20092;-58
2022/01/03 03:42:35;;;;;;;39.17;4.90;;;;;;;11.43;71.41;101160.22;4981642;28;20428;-61
2022/01/03 03:45:01;;;;;;;42.47;4.63;;;;;;;11.36;71.06;101165.34;4983554;28;20066;-60
2022/01/03 03:47:26;;;;;;;38.88;4.35;;;;;;;11.41;71.48;101165.41;4980950;28;20096;-59
2022/01/03 03:49:52;;;;;;;32.22;4.55;;;;;;;11.38;71.57;101160.16;4979516;28;20523;-60
2022/01/03 03:52:18;;;;;;;39.67;4.78;;;;;;;11.51;71.23;101169.03;4974389;28;20452;-59
2022/01/03 03:54:44;;;;;;;35.63;4.60;;;;;;;11.48;71.12;101156.81;4979777;28;20062;-59
2022/01/03 03:57:09;;;;;;;29.58;4.47;;;;;;;11.51;70.91;101162.09;4984251;28;20047;-59
2022/01/03 03:59:35;;;;;;;40.92;5.05;;;;;;;11.50;70.90;101151.63;4972591;28;20053;-61
2022/01/03 04:02:01;;;;;;;29.25;4.05;;;;;;;11.44;71.15;101149.81;4978446;28;20049;-59
2022/01/03 04:04:27;;;;;;;35.67;4.82;;;;;;;11.53;70.59;101149.03;4984632;28;20046;-60
2022/01/03 04:06:52;;;;;;;32.80;4.15;;;;;;;11.48;70.60;101148.09;4978342;28;20037;-59
2022/01/03 04:09:18;;;;;;;32.25;4.00;;;;;;;11.56;70.24;101147.38;4981700;28;20037;-60
2022/01/03 04:11:43;;;;;;;31.10;4.50;;;;;;;11.46;70.73;101147.22;4976667;28;20042;-59
2022/01/03 04:14:08;;;;;;;38.58;4.45;;;;;;;11.44;70.76;101131.53;4985016;28;20061;-60
2022/01/03 04:16:34;;;;;;;40.47;4.93;;;;;;;11.47;70.73;101136.78;4981306;28;20117;-59
2022/01/03 04:19:00;;;;;;;41.00;4.78;;;;;;;11.45;70.97;101141.13;4985401;28;20150;-60
2022/01/03 04:21:26;;;;;;;42.53;4.82;;;;;;;11.42;71.49;101143.66;4970949;28;20064;-59
2022/01/03 04:23:52;;;;;;;39.67;4.18;;;;;;;11.36;71.74;101134.03;4977394;28;20064;-59
2022/01/03 04:26:18;;;;;;;31.95;4.55;;;;;;;11.40;71.41;101140.19;4980671;28;20076;-59
2022/01/03 04:28:44;;;;;;;35.30;4.53;;;;;;;11.34;72.01;101138.34;4981918;28;20140;-59
2022/01/03 04:31:09;;;;;;;40.05;4.60;;;;;;;11.38;72.02;101134.06;4979668;28;20049;-59
2022/01/03 04:33:35;;;;;;;38.35;4.72;;;;;;;11.41;71.87;101139.31;4976393;28;20034;-60
2022/01/03 04:36:01;;;;;;;40.47;4.88;;;;;;;11.39;71.93;101125.38;4980378;28;20090;-60
2022/01/03 04:38:26;;;;;;;44.88;5.13;;;;;;;11.35;72.55;101128.78;4981575;28;20405;-58
2022/01/03 04:40:52;;;;;;;39.92;4.53;;;;;;;11.42;72.18;101132.34;4981415;28;20743;-59
2022/01/03 04:43:17;;;;;;;40.05;5.15;;;;;;;11.44;72.34;101125.44;4984454;28;20536;-59
2022/01/03 04:45:43;;;;;;;37.20;4.38;;;;;;;11.44;72.39;101128.03;4964267;28;20595;-60
2022/01/03 04:48:08;;;;;;;38.10;4.07;;;;;;;11.35;72.62;101119.22;4976372;28;20045;-59
2022/01/03 04:50:33;;;;;;;41.90;4.22;;;;;;;11.32;72.62;101124.41;4998133;28;20528;-59
2022/01/03 04:52:59;;;;;;;39.30;4.38;;;;;;;11.31;72.88;101117.44;4981336;28;20513;-60
2022/01/03 04:55:24;;;;;;;35.95;4.10;;;;;;;11.39;72.95;101128.88;4973242;28;20077;-58
2022/01/03 04:57:50;;;;;;;39.72;4.95;;;;;;;11.43;72.48;101123.66;4980250;28;20042;-60
2022/01/03 05:00:17;;;;;;;43.00;5.50;;;;;;;11.37;72.54;101119.25;4983706;28;20053;-59
2022/01/03 05:02:42;;;;;;;39.28;5.55;;;;;;;11.29;72.63;101107.81;4982703;28;20156;-59
2022/01/03 05:05:08;;;;;;;37.78;4.45;;;;;;;11.38;72.66;101115.78;4993519;28;20082;-60
2022/01/03 05:07:33;;;;;;;38.65;4.68;;;;;;;11.40;72.43;101111.47;4974330;28;20571;-60
2022/01/03 05:09:59;;;;;;;44.30;5.15;;;;;;;11.33;72.92;101120.06;4972985;28;20053;-59
2022/01/03 05:12:24;;;;;;;35.67;5.10;;;;;;;11.36;72.67;101120.09;4981469;28;20548;-59
2022/01/03 05:14:49;;;;;;;41.45;4.40;;;;;;;11.46;72.59;101122.00;4981232;28;20121;-59
2022/01/03 05:17:15;;;;;;;31.83;4.65;;;;;;;11.47;72.16;101113.28;4981662;28;20034;-60
2022/01/03 05:19:40;;;;;;;37.58;4.72;;;;;;;11.50;72.14;101120.28;4969863;28;20302;-59
2022/01/03 05:22:06;;;;;;;33.63;4.43;;;;;;;11.41;72.43;101113.19;4979705;28;20132;-59
2022/01/03 05:24:35;;;;;;;42.97;4.60;;;;;;;11.43;72.56;101116.72;4982848;28;20049;-59
2022/01/03 05:27:04;;;;;;;36.25;4.35;;;;;;;11.45;72.70;101116.75;4981285;28;20056;-59
2022/01/03 05:29:30;;;;;;;37.72;4.20;;;;;;;11.43;72.67;101119.31;4972924;28;20076;-60
2022/01/03 05:31:55;;;;;;;35.88;4.72;;;;;;;11.46;72.49;101122.00;4981231;28;20050;-59
2022/01/03 05:34:20;;;;;;;34.38;3.95;;;;;;;11.50;72.56;101125.50;4972615;28;20493;-58
2022/01/03 05:36:46;;;;;;;34.03;3.45;;;;;;;11.46;72.76;101126.34;4984682;28;20044;-61
2022/01/03 05:39:12;;;;;;;42.13;5.07;;;;;;;11.50;72.38;101118.56;4979436;28;20062;-59
2022/01/03 05:41:38;;;;;;;40.17;4.72;;;;;;;11.56;72.80;101115.16;4954203;28;20618;-58
2022/01/03 05:44:04;;;;;;;39.75;4.97;;;;;;;11.66;72.62;101128.34;4975490;28;20054;-59
2022/01/03 05:46:29;;;;;;;32.35;4.38;;;;;;;11.65;72.73;101121.34;4979759;28;20158;-59
2022/01/03 05:48:55;;;;;;;40.70;4.75;;;;;;;11.83;72.09;101117.28;4978042;28;20037;-60
2022/01/03 05:51:20;;;;;;;41.33;4.95;;;;;;;11.83;71.70;101101.59;4978602;28;20034;-59
2022/01/03 05:53:46;;;;;;;32.35;3.88;;;;;;;11.73;72.09;101105.78;4974780;28;20275;-60
2022/01/03 05:56:11;;;;;;;40.53;4.70;;;;;;;11.73;72.07;101108.41;4982334;28;20037;-58
2022/01/03 05:58:36;;;;;;;40.25;4.47;;;;;;;11.71;71.83;101108.38;4983218;28;20057;-58
2022/01/03 06:01:02;;;;;;;35.53;4.35;;;;;;;11.66;72.08;101110.06;4968478;28;20054;-59
2022/01/03 06:03:33;;;;;;;37.70;4.05;;;;;;;11.62;72.09;101104.78;4966333;28;20937;-60
2022/01/03 06:08:33;;;;;;;35.85;4.68;;;;;;;11.56;72.40;101109.94;4983164;28;20108;-59
2022/01/03 06:10:59;;;;;;;39.40;4.68;;;;;;;11.53;72.02;101102.91;4981643;28;20425;-60
2022/01/03 06:13:24;;;;;;;33.40;4.05;;;;;;;11.50;72.51;101105.50;4978610;28;20193;-58
2022/01/03 06:15:51;;;;;;;37.10;4.28;;;;;;;11.48;72.29;101109.81;4967566;28;20058;-59
2022/01/03 06:18:16;;;;;;;33.60;4.97;;;;;;;11.53;72.41;101104.66;4978489;28;20049;-59
2022/01/03 06:20:43;;;;;;;33.58;4.82;;;;;;;11.45;72.63;101101.09;4975033;28;20401;-60
2022/01/03 06:23:11;;;;;;;35.92;4.50;;;;;;;11.40;72.63;101096.66;4974668;28;20544;-59
2022/01/03 06:25:37;;;;;;;30.27;4.45;;;;;;;11.37;72.96;101086.19;4971962;28;20484;-59
2022/01/03 06:28:07;;;;;;;33.70;4.18;;;;;;;11.49;72.56;101085.47;4978511;28;20136;-59
2022/01/03 06:30:32;;;;;;;32.05;4.45;;;;;;;11.43;72.89;101080.16;4977135;28;20048;-60
2022/01/03 06:32:58;;;;;;;35.53;4.20;;;;;;;11.58;72.49;101089.94;4980089;28;20041;-59
2022/01/03 06:35:23;;;;;;;40.22;4.93;;;;;;;11.53;72.41;101073.31;4974000;28;20073;-59
2022/01/03 06:37:49;;;;;;;29.65;3.92;;;;;;;11.52;72.96;101093.34;4972901;28;20042;-59
2022/01/03 06:40:14;;;;;;;30.63;3.88;;;;;;;11.57;72.65;101088.19;4981629;28;20054;-60
2022/01/03 06:42:39;;;;;;;36.92;4.10;;;;;;;11.54;72.86;101089.00;4973844;28;20038;-60
2022/01/03 06:45:05;;;;;;;36.05;4.82;;;;;;;11.57;72.86;101102.13;4973565;28;20038;-58
2022/01/03 06:47:31;;;;;;;28.55;4.07;;;;;;;11.58;72.60;101095.16;4972142;28;20034;-59
2022/01/03 06:49:56;;;;;;;35.88;4.32;;;;;;;11.55;72.71;101088.16;4986012;28;20104;-59
2022/01/03 06:52:21;;;;;;;36.28;4.82;;;;;;;11.57;72.76;101093.41;4983418;28;20470;-59
2022/01/03 06:54:47;;;;;;;34.42;4.63;;;;;;;11.56;72.50;101089.03;4984068;28;20125;-58
2022/01/03 06:57:12;;;;;;;45.13;3.97;;;;;;;11.52;72.45;101082.03;4985387;28;20046;-59
2022/01/03 06:59:38;;;;;;;30.58;4.05;;;;;;;11.50;72.62;101084.63;4977853;28;20042;-59
2022/01/03 07:02:04;;;;;;;36.03;4.43;;;;;;;11.40;72.68;101087.97;4983310;28;20054;-59
2022/01/03 07:04:30;;;;;;;33.13;4.40;;;;;;;11.46;72.29;101080.22;4983679;28;20304;-60
2022/01/03 07:06:55;;;;;;;33.72;3.70;;;;;;;11.39;72.62;101075.78;4984335;28;20038;-61
2022/01/03 07:09:22;;;;;;;34.25;3.65;;;;;;;11.45;72.38;101086.28;4973200;28;20107;-59
2022/01/03 07:11:47;;;;;;;39.85;4.30;;;;;;;11.43;72.17;101077.56;4977297;28;20511;-59
2022/01/03 07:19:31;;;;;;;29.02;3.45;;;;;;;11.36;71.74;101075.72;4970912;28;20531;-60
2022/01/03 07:21:57;;;;;;;35.17;3.53;;;;;;;11.34;72.33;101082.66;4975360;28;20053;-59
2022/01/03 07:24:22;;;;;;;30.33;4.03;;;;;;;11.34;71.88;101085.28;4984356;28;20050;-60
2022/01/03 07:26:48;;;;;;;36.83;4.03;;;;;;;11.16;72.64;101077.19;4984665;28;20074;-59
2022/01/03 07:29:13;;;;;;;30.50;3.42;;;;;;;11.38;72.23;101097.50;4979183;28;21129;-58
2022/01/03 07:31:38;;;;;;;29.65;4.55;;;;;;;11.36;72.05;101092.25;4989034;28;20107;-59
2022/01/03 07:34:04;;;;;;;27.38;3.65;;;;;;;11.43;71.76;101087.13;4983993;28;20053;-59
2022/01/03 07:36:30;;;;;;;32.03;4.18;;;;;;;11.47;71.55;101084.56;4985839;28;20544;-59
2022/01/03 07:38:56;;;;;;;32.17;3.90;;;;;;;11.40;71.60;101086.22;4983094;28;20399;-59
2022/01/03 07:41:22;;;;;;;31.95;3.80;;;;;;;11.40;71.69;101083.59;4978295;28;20041;-59
2022/01/03 07:43:48;;;;;;;30.77;3.80;;;;;;;11.32;71.88;101089.59;4991499;28;20121;-60
2022/01/03 07:46:14;;;;;;;33.83;4.05;;;;;;;11.44;71.87;101091.50;4979995;28;20052;-59
2022/01/03 07:48:39;;;;;;;34.45;3.78;;;;;;;11.43;71.36;101098.44;4981368;28;20275;-59
2022/01/03 07:51:05;;;;;;;35.38;4.53;;;;;;;11.42;71.61;101090.59;4981745;28;20086;-60
2022/01/03 07:53:30;;;;;;;41.03;4.90;;;;;;;11.43;71.39;101102.78;4976857;28;20049;-61
2022/01/03 07:55:57;;;;;;;33.60;4.30;;;;;;;11.35;71.72;101102.66;4981055;28;20050;-60
2022/01/03 07:58:22;;;;;;;32.17;4.00;;;;;;;11.43;71.36;101108.88;4979951;28;20119;-61
2022/01/03 08:00:47;;;;;;;42.33;3.95;;;;;;;11.40;71.60;101104.47;4984850;28;20053;-60
2022/01/03 08:03:13;;;;;;;33.28;4.13;;;;;;;11.36;71.55;101089.66;4981043;28;20104;-59
2022/01/03 08:05:39;;;;;;;33.92;4.00;;;;;;;11.32;71.43;101098.31;4971271;28;20449;-60
2022/01/03 08:08:08;;;;;;;28.92;3.78;;;;;;;11.44;71.07;101099.31;4976017;28;20048;-60
2022/01/03 08:10:34;;;;;;;37.88;4.28;;;;;;;11.40;71.20;101101.03;4981007;28;20076;-59
2022/01/03 08:12:59;;;;;;;29.42;4.10;;;;;;;11.44;70.73;101105.41;4982246;28;20065;-59
2022/01/03 08:15:25;;;;;;;34.95;4.03;;;;;;;11.40;71.12;101096.66;4972663;28;20042;-59
2022/01/03 08:17:50;;;;;;;32.17;4.20;;;;;;;11.39;70.83;101099.28;4979093;28;20058;-60
2022/01/03 08:20:16;;;;;;;40.90;4.30;;;;;;;11.31;71.36;101093.94;4982214;28;20100;-60
2022/01/03 08:22:41;;;;;;;34.65;4.13;;;;;;;11.30;71.43;101094.78;4979991;28;20458;-60
2022/01/03 08:25:07;;;;;;;31.10;4.07;;;;;;;11.31;71.57;101096.53;4982704;28;20085;-61
2022/01/03 08:27:32;;;;;;;31.10;3.75;;;;;;;11.33;71.70;101104.41;4976622;28;20049;-61
2022/01/03 08:29:57;;;;;;;31.98;4.35;;;;;;;11.35;71.43;101108.78;4982047;28;20166;-60
2022/01/03 08:32:23;;;;;;;26.00;3.53;;;;;;;11.26;71.74;101108.66;4978712;28;20041;-60
2022/01/03 08:34:50;;;;;;;34.53;4.13;;;;;;;11.35;71.24;101106.16;4980562;28;20049;-61
2022/01/03 08:37:15;;;;;;;33.25;3.92;;;;;;;11.37;71.72;101108.81;4985169;28;20074;-59
2022/01/03 08:39:41;;;;;;;37.33;4.30;;;;;;;11.43;71.60;101126.28;4965904;28;20344;-59
2022/01/03 08:42:06;;;;;;;36.63;4.50;;;;;;;11.44;71.68;101117.59;4976175;28;20030;-60
2022/01/03 08:44:32;;;;;;;30.33;4.28;;;;;;;11.40;71.61;101122.75;4974958;28;20472;-59
2022/01/03 08:46:58;;;;;;;37.42;4.38;;;;;;;11.49;71.74;101129.84;4978458;28;20046;-59
2022/01/03 08:49:23;;;;;;;36.80;4.63;;;;;;;11.55;71.59;101129.94;4975532;28;20042;-58
2022/01/03 08:51:49;;;;;;;32.97;3.95;;;;;;;11.60;71.37;101124.75;4970538;28;20054;-60
2022/01/03 08:54:14;;;;;;;30.17;3.83;;;;;;;11.61;70.96;101119.56;4979241;28;20092;-58
2022/01/03 08:56:40;;;;;;;33.17;3.92;;;;;;;11.58;71.13;101124.78;4978597;28;20049;-59
2022/01/03 08:59:06;;;;;;;30.65;4.30;;;;;;;11.51;71.35;101115.09;4973892;28;20053;-59
2022/01/03 09:01:32;;;;;;;32.95;3.95;;;;;;;11.57;70.91;101109.06;4970643;28;20041;-59
2022/01/03 09:03:57;;;;;;;28.27;3.85;;;;;;;11.60;70.44;101107.38;4979516;28;20049;-59
2022/01/03 09:06:22;;;;;;;34.85;4.20;;;;;;;11.60;70.86;101109.09;4979289;28;20041;-59
2022/01/03 09:08:48;;;;;;;30.10;4.13;;;;;;;11.57;70.76;101103.84;4975434;28;20675;-59
2022/01/03 09:11:14;;;;;;;33.88;3.95;;;;;;;11.61;70.69;101106.50;4978114;28;20041;-60
2022/01/03 09:13:40;;;;;;;32.22;3.60;;;;;;;11.56;70.59;101109.94;4973052;28;20401;-60
2022/01/03 09:16:07;;;;;;;28.30;3.90;;;;;;;11.64;70.59;101105.69;4981829;28;20050;-59
2022/01/03 09:18:34;;;;;;;32.60;4.15;;;;;;;11.61;70.74;101097.81;4982296;28;20045;-59
2022/01/03 09:21:00;;;;;;;28.60;3.70;;;;;;;11.57;70.83;101091.69;4976224;28;20165;-59
2022/01/03 09:23:39;;;;;;;42.72;4.60;;;;;;;11.59;70.71;101096.91;4980250;28;20686;-59
2022/01/03 09:28:49;;;;;;;33.15;3.60;;;;;;;11.62;70.94;101091.72;4977534;28;20120;-59
2022/01/03 09:31:16;;;;;;;31.58;3.58;;;;;;;11.68;70.56;101090.06;4980332;28;20042;-60
2022/01/03 09:33:41;;;;;;;33.95;4.10;;;;;;;11.65;71.04;101091.75;4968477;28;20296;-58
2022/01/03 09:36:09;;;;;;;28.35;3.90;;;;;;;11.78;70.43;101088.47;4989180;28;20531;-59
2022/01/03 09:38:38;;;;;;;27.55;3.67;;;;;;;11.82;70.28;101084.19;4973567;28;20038;-59
2022/01/03 09:41:05;;;;;;;35.72;4.95;;;;;;;11.79;70.57;101090.22;4967862;28;20041;-59
2022/01/03 09:43:41;;;;;;;37.25;4.07;;;;;;;11.93;70.26;101088.66;4973868;28;20752;-60
2022/01/03 09:46:10;;;;;;;32.60;4.10;;;;;;;12.05;70.10;101080.94;4980066;28;20050;-59
2022/01/03 09:48:37;;;;;;;34.63;3.72;;;;;;;12.14;69.64;101078.41;4978402;28;20293;-60
2022/01/03 09:51:02;;;;;;;31.25;4.18;;;;;;;12.16;69.69;101084.56;4966776;28;20411;-58
2022/01/03 09:53:29;;;;;;;35.38;4.70;;;;;;;12.20;69.95;101094.16;4969820;28;20357;-58
2022/01/03 09:55:54;;;;;;;42.88;4.55;;;;;;;12.41;69.42;101084.78;4983121;28;20134;-60
2022/01/03 09:58:20;;;;;;;40.30;4.25;;;;;;;12.44;69.38;101084.84;4980348;28;20042;-59
2022/01/03 10:00:46;;;;;;;36.15;5.05;;;;;;;12.54;69.15;101081.41;4972722;28;20572;-59
2022/01/03 10:03:11;;;;;;;42.00;4.53;;;;;;;12.73;68.90;101080.72;4977248;28;20060;-61
2022/01/03 10:05:36;;;;;;;34.53;4.50;;;;;;;12.82;68.68;101085.13;4972642;28;20141;-60
2022/01/03 10:08:02;;;;;;;40.28;4.60;;;;;;;12.84;68.33;101081.66;4983174;28;20141;-61
2022/01/03 10:10:28;;;;;;;36.83;5.10;;;;;;;12.90;68.36;101079.09;4977640;28;20432;-59
2022/01/03 10:12:54;;;;;;;35.63;4.82;;;;;;;12.77;68.74;101074.63;4982801;28;20394;-60
2022/01/03 10:15:19;;;;;;;31.17;4.55;;;;;;;12.96;68.16;101073.03;4979135;28;20551;-59
2022/01/03 10:17:47;;;;;;;33.83;4.50;;;;;;;13.04;67.92;101073.97;4975024;28;20041;-59
2022/01/03 10:20:13;;;;;;;34.03;4.25;;;;;;;13.14;67.81;101072.31;4988969;28;20150;-59
2022/01/03 10:22:40;;;;;;;31.35;4.65;;;;;;;13.25;67.32;101074.09;4985320;28;20038;-59
2022/01/03 10:25:26;;;;;;;36.72;4.88;;;;;;;13.31;67.15;101066.28;4984270;28;20049;-59
2022/01/03 10:27:59;;;;;;;32.42;4.10;;;;;;;13.37;66.53;101066.31;4984343;28;20066;-59
2022/01/03 10:30:41;;;;;;;35.42;4.60;;;;;;;13.35;66.68;101067.19;4987829;28;20180;-59
2022/01/03 10:33:09;;;;;;;32.58;4.05;;;;;;;13.32;66.66;101070.66;4980041;28;20374;-60
2022/01/03 10:35:41;;;;;;;31.20;4.32;;;;;;;13.29;66.67;101051.47;4974441;28;20042;-60
2022/01/03 10:38:09;;;;;;;35.72;4.10;;;;;;;13.23;66.71;101056.66;4985147;28;20129;-59
2022/01/03 10:40:34;;;;;;;28.73;4.25;;;;;;;13.15;66.91;101054.00;4978604;28;20053;-60
2022/01/03 10:43:23;;;;;;;29.50;3.83;;;;;;;13.17;67.11;101043.53;4983040;28;20041;-59
2022/01/03 10:45:50;;;;;;;33.22;4.15;;;;;;;13.37;66.74;101050.59;4982188;28;20902;-60
2022/01/03 10:48:34;;;;;;;27.77;3.97;;;;;;;13.50;66.62;101046.31;4983162;28;20393;-60
2022/01/03 10:51:00;;;;;;;29.10;4.35;;;;;;;13.63;66.17;101042.88;4986770;28;20525;-59
2022/01/03 10:53:38;;;;;;;36.47;4.70;;;;;;;13.74;65.92;101042.91;4975832;28;20064;-60
2022/01/03 10:56:28;;;;;;;32.97;4.07;;;;;;;13.69;65.84;101045.50;4985546;28;20088;-60
2022/01/03 10:59:34;;;;;;;41.58;5.18;;;;;;;13.72;65.78;101039.41;4975922;28;20045;-59
2022/01/03 11:02:02;;;;;;;32.40;4.45;;;;;;;13.75;65.75;101036.78;4978280;28;20076;-59
2022/01/03 11:04:33;;;;;;;34.05;4.30;;;;;;;13.87;65.50;101034.19;4982981;28;20552;-60
2022/01/03 11:13:07;;;;;;;38.72;4.55;;;;;;;13.64;65.92;101026.28;4980040;28;20045;-60
2022/01/03 11:15:33;;;;;;;33.88;4.57;;;;;;;13.64;66.26;101015.81;4984576;28;20081;-59
2022/01/03 11:18:14;;;;;;;34.13;4.55;;;;;;;13.69;65.93;101015.81;4981026;28;20164;-59
2022/01/03 11:20:40;;;;;;;40.45;5.03;;;;;;;13.65;66.18;101008.81;4979125;28;20317;-59
2022/01/03 11:23:05;;;;;;;38.72;5.05;;;;;;;13.64;66.10;101012.31;4976292;28;20512;-59
2022/01/03 11:25:33;;;;;;;33.80;4.43;;;;;;;13.62;66.15;101009.66;4975809;28;20103;-59
2022/01/03 11:28:03;;;;;;;37.70;4.55;;;;;;;13.47;66.73;100996.53;4987074;28;20040;-61
2022/01/03 11:30:29;;;;;;;30.45;4.38;;;;;;;13.53;67.09;101012.28;4976124;28;20052;-60
2022/01/03 11:32:56;;;;;;;36.67;5.07;;;;;;;13.61;66.77;100994.81;4984119;28;20450;-60
2022/01/03 11:35:22;;;;;;;30.83;4.38;;;;;;;13.64;66.14;100994.84;4977282;28;21059;-59